Time;durP1;ratioP1;P1;durP2;ratioP2;P2;SDS_P1;SDS_P2;PMS_P1;PMS_P2;Temp;Humidity;BMP_temperature;BMP_pressure;BME280_temperature;BME280_humidity;BME280_pressure;Samples;Min_cycle;Max_cycle;Signal;HPM_P1;HPM_P2
2022/06/08 00:01:11;;;;;;;17.77;14.02;;;17.10;99.90;;;;;;5133177;27;20027;-51
2022/06/08 00:03:55;;;;;;;18.63;14.52;;;17.10;99.90;;;;;;5133229;27;20023;-51
2022/06/08 00:06:21;;;;;;;19.15;14.55;;;17.20;99.90;;;;;;5133241;27;20027;-50
2022/06/08 00:08:47;;;;;;;20.38;15.35;;;17.10;99.90;;;;;;5133344;27;20027;-51
2022/06/08 00:11:14;;;;;;;21.52;14.80;;;17.10;99.90;;;;;;5133231;27;20151;-50
2022/06/08 00:13:42;;;;;;;23.33;16.03;;;17.00;99.90;;;;;;5133118;27;20110;-51
2022/06/08 00:16:09;;;;;;;22.33;16.40;;;16.90;99.90;;;;;;5132926;27;20023;-51
2022/06/08 00:18:34;;;;;;;24.20;18.15;;;16.80;99.90;;;;;;5132867;27;20034;-51
2022/06/08 00:21:00;;;;;;;20.67;16.15;;;16.60;99.90;;;;;;5133188;27;20027;-51
2022/06/08 00:23:26;;;;;;;21.42;18.23;;;16.80;99.90;;;;;;5132958;27;20046;-52
2022/06/08 00:25:52;;;;;;;22.50;18.63;;;16.80;99.90;;;;;;5133048;27;20057;-51
2022/06/08 00:28:18;;;;;;;25.13;19.00;;;16.80;99.90;;;;;;5132816;27;20034;-51
2022/06/08 00:30:44;;;;;;;25.83;20.80;;;16.70;99.90;;;;;;5132611;27;20057;-51
2022/06/08 00:33:10;;;;;;;28.73;22.93;;;16.70;99.90;;;;;;5132682;27;20038;-51
2022/06/08 00:35:37;;;;;;;31.58;24.38;;;16.70;99.90;;;;;;5132657;27;20343;-52
2022/06/08 00:38:03;;;;;;;27.87;23.93;;;16.80;99.90;;;;;;5132835;27;20441;-51
2022/06/08 00:41:04;;;;;;;30.48;22.92;;;16.80;99.90;;;;;;5132444;27;20019;-51
2022/06/08 00:43:30;;;;;;;32.83;24.23;;;16.90;99.90;;;;;;5091143;27;20035;-51
2022/06/08 00:45:57;;;;;;;29.95;23.42;;;16.90;99.90;;;;;;5132394;27;20018;-50
2022/06/08 00:48:26;;;;;;;32.33;25.83;;;17.00;99.90;;;;;;5132773;27;20038;-51
2022/06/08 00:50:54;;;;;;;32.13;23.70;;;17.00;99.90;;;;;;5132448;27;20070;-51
2022/06/08 00:53:29;;;;;;;30.20;24.55;;;17.00;99.90;;;;;;5132085;27;20047;-51
2022/06/08 00:55:56;;;;;;;29.00;23.40;;;17.00;99.90;;;;;;5132507;27;20565;-51
2022/06/08 00:58:26;;;;;;;31.30;24.45;;;17.00;99.90;;;;;;5132307;27;20110;-51
2022/06/08 01:00:52;;;;;;;35.45;24.45;;;17.00;99.90;;;;;;5132173;27;20019;-51
2022/06/08 01:03:18;;;;;;;34.47;25.50;;;16.90;99.90;;;;;;5132317;27;20110;-51
2022/06/08 01:05:58;;;;;;;33.40;25.33;;;16.90;99.90;;;;;;5132127;27;20450;-51
2022/06/08 01:08:40;;;;;;;36.08;24.75;;;17.00;99.90;;;;;;5131596;27;20031;-51
2022/06/08 01:11:38;;;;;;;30.17;24.02;;;17.00;99.90;;;;;;5132103;27;20030;-51
2022/06/08 01:14:10;;;;;;;34.10;24.13;;;17.00;99.90;;;;;;5122845;27;20035;-51
2022/06/08 01:16:37;;;;;;;30.92;24.00;;;17.10;99.90;;;;;;5131720;27;20042;-51
2022/06/08 01:19:04;;;;;;;35.60;26.75;;;17.10;99.90;;;;;;5132013;27;20019;-50
2022/06/08 01:21:29;;;;;;;32.72;24.98;;;17.10;99.90;;;;;;5131786;27;20028;-51
2022/06/08 01:24:00;;;;;;;34.03;24.13;;;17.00;99.90;;;;;;5131816;27;20034;-51
2022/06/08 01:26:44;;;;;;;30.92;23.95;;;17.10;99.90;;;;;;5131873;27;20042;-51
2022/06/08 01:29:15;;;;;;;30.65;24.30;;;17.00;99.90;;;;;;5131840;27;20030;-51
2022/06/08 01:31:47;;;;;;;36.55;24.85;;;17.00;99.90;;;;;;5131393;27;20587;-52
2022/06/08 01:34:47;;;;;;;33.83;24.55;;;16.90;99.90;;;;;;5131609;27;20491;-50
2022/06/08 01:37:34;;;;;;;31.83;23.83;;;17.00;99.90;;;;;;5131516;27;20480;-50
2022/06/08 01:40:12;;;;;;;29.13;23.73;;;16.90;99.90;;;;;;5131409;27;20505;-52
2022/06/08 01:42:46;;;;;;;29.30;23.27;;;16.90;99.90;;;;;;5127150;27;20026;-52
2022/06/08 01:45:37;;;;;;;29.67;22.08;;;16.90;99.90;;;;;;5151095;27;20484;-50
2022/06/08 01:48:06;;;;;;;31.42;23.25;;;16.90;99.90;;;;;;5151204;27;20087;-53
2022/06/08 01:50:50;;;;;;;30.63;24.10;;;17.00;99.90;;;;;;5152026;27;20139;-53
2022/06/08 01:53:30;;;;;;;29.70;22.52;;;17.00;99.90;;;;;;5151579;27;20419;-53
2022/06/08 01:56:25;;;;;;;30.67;23.52;;;16.90;99.90;;;;;;5151639;27;20050;-53
2022/06/08 01:59:19;;;;;;;30.15;23.83;;;17.00;99.90;;;;;;5151683;27;20054;-53
2022/06/08 02:01:56;;;;;;;27.02;22.73;;;17.00;99.90;;;;;;5152036;27;20087;-53
2022/06/08 02:04:38;;;;;;;29.27;23.45;;;16.90;99.90;;;;;;5151588;27;20030;-53
2022/06/08 02:07:36;;;;;;;26.27;20.95;;;16.90;99.90;;;;;;5151694;27;20019;-54
2022/06/08 02:10:16;;;;;;;29.98;22.10;;;16.80;99.90;;;;;;5151764;27;20048;-54
2022/06/08 02:12:53;;;;;;;29.08;21.90;;;16.80;99.90;;;;;;5151613;27;20031;-53
2022/06/08 02:15:30;;;;;;;32.20;22.80;;;16.80;99.90;;;;;;5151668;27;20094;-53
2022/06/08 02:18:00;;;;;;;31.10;23.08;;;16.70;99.90;;;;;;5151612;27;20034;-53
2022/06/08 02:20:30;;;;;;;25.58;20.48;;;16.70;99.90;;;;;;5151552;27;20110;-53
2022/06/08 02:23:21;;;;;;;23.65;19.25;;;16.80;99.90;;;;;;5151584;27;20166;-53
2022/06/08 02:25:52;;;;;;;24.40;19.90;;;16.80;99.90;;;;;;5137171;27;20041;-54
2022/06/08 02:28:24;;;;;;;23.20;18.42;;;16.80;99.90;;;;;;5151251;27;20038;-53
2022/06/08 02:31:11;;;;;;;22.63;18.63;;;16.80;99.90;;;;;;5151456;27;20019;-53
2022/06/08 02:36:34;;;;;;;24.33;18.05;;;16.70;99.90;;;;;;5151409;27;20037;-54
2022/06/08 02:39:30;;;;;;;27.80;18.13;;;16.80;99.90;;;;;;5151346;27;20027;-54
2022/06/08 02:42:04;;;;;;;24.73;18.80;;;16.70;99.90;;;;;;5111388;27;20053;-53
2022/06/08 02:44:32;;;;;;;25.58;19.25;;;16.70;99.90;;;;;;5151136;27;20027;-50
2022/06/08 02:46:57;;;;;;;23.75;18.05;;;16.70;99.90;;;;;;5151582;27;20031;-50
2022/06/08 02:49:23;;;;;;;22.35;18.35;;;16.70;99.90;;;;;;5150654;27;20034;-50
2022/06/08 02:51:50;;;;;;;24.92;18.95;;;16.70;99.90;;;;;;5137486;27;20054;-50
2022/06/08 02:54:24;;;;;;;26.73;18.85;;;16.70;99.90;;;;;;5144182;27;20486;-50
2022/06/08 02:57:17;;;;;;;26.75;18.58;;;16.70;99.90;;;;;;5160422;27;20027;-51
2022/06/08 03:00:11;;;;;;;26.85;20.02;;;16.70;99.90;;;;;;5130448;28;20053;-50
2022/06/08 03:02:45;;;;;;;25.13;19.13;;;16.60;99.90;;;;;;5111851;28;20023;-50
2022/06/08 03:05:27;;;;;;;26.13;19.67;;;16.70;99.90;;;;;;5134244;27;20063;-50
2022/06/08 03:07:56;;;;;;;24.52;19.67;;;16.70;99.90;;;;;;5148696;27;20026;-51
2022/06/08 03:10:24;;;;;;;24.92;19.80;;;16.70;99.90;;;;;;5150951;27;20484;-50
2022/06/08 03:13:12;;;;;;;25.48;19.40;;;16.60;99.90;;;;;;5150820;27;20038;-51
2022/06/08 03:15:40;;;;;;;26.42;19.60;;;16.70;99.90;;;;;;5119897;27;20122;-50
2022/06/08 03:18:06;;;;;;;26.98;19.75;;;16.70;99.90;;;;;;5132948;27;20023;-51
2022/06/08 03:20:32;;;;;;;25.55;19.70;;;16.70;99.90;;;;;;5139221;27;20359;-51
2022/06/08 03:22:58;;;;;;;24.33;18.58;;;16.70;99.90;;;;;;5139775;27;20119;-51
2022/06/08 03:25:24;;;;;;;24.23;19.25;;;16.70;99.90;;;;;;5138242;27;20022;-51
2022/06/08 03:27:50;;;;;;;22.83;18.98;;;16.70;99.90;;;;;;5130017;28;20730;-51
2022/06/08 03:30:17;;;;;;;25.45;20.17;;;16.80;99.90;;;;;;5131162;27;20030;-51
2022/06/08 03:32:43;;;;;;;24.15;19.40;;;16.80;99.90;;;;;;5144037;27;20079;-51
2022/06/08 03:35:10;;;;;;;26.00;19.70;;;16.80;99.90;;;;;;5154699;27;20043;-51
2022/06/08 03:37:35;;;;;;;28.53;21.07;;;16.80;99.90;;;;;;5140630;27;20027;-51
2022/06/08 03:40:02;;;;;;;23.75;20.08;;;16.90;99.90;;;;;;5133413;27;20034;-50
2022/06/08 03:42:28;;;;;;;23.98;19.77;;;16.90;99.90;;;;;;5144155;27;20077;-50
2022/06/08 03:44:54;;;;;;;24.35;20.35;;;16.90;99.90;;;;;;5154393;27;20127;-50
2022/06/08 03:47:23;;;;;;;29.52;22.00;;;16.90;99.90;;;;;;5135519;27;20027;-51
2022/06/08 03:49:50;;;;;;;25.60;21.13;;;16.90;99.90;;;;;;5116744;27;20018;-52
2022/06/08 03:52:22;;;;;;;29.65;21.38;;;17.00;99.90;;;;;;5152234;27;20031;-52
2022/06/08 03:54:51;;;;;;;24.70;20.17;;;16.90;99.90;;;;;;5152266;27;20027;-51
2022/06/08 03:57:18;;;;;;;27.50;21.05;;;16.90;99.90;;;;;;5152579;27;20436;-51
2022/06/08 03:59:46;;;;;;;23.55;19.75;;;17.00;99.90;;;;;;5133949;27;20033;-52
2022/06/08 04:02:12;;;;;;;27.90;20.52;;;16.90;99.90;;;;;;5152186;27;20034;-53
2022/06/08 04:04:39;;;;;;;24.70;19.33;;;17.00;99.90;;;;;;5153529;27;20083;-52
2022/06/08 04:10:27;;;;;;;26.23;20.33;;;17.00;99.90;;;;;;5154158;27;20059;-52
2022/06/08 04:12:55;;;;;;;24.25;19.17;;;17.00;99.90;;;;;;5135034;27;20035;-51
2022/06/08 04:18:05;;;;;;;27.20;19.20;;;17.00;99.90;;;;;;5154279;27;19968;-51
2022/06/08 04:20:32;;;;;;;22.73;18.40;;;17.00;99.90;;;;;;5153951;27;20446;-51
2022/06/08 04:22:58;;;;;;;24.00;17.92;;;16.90;99.90;;;;;;5153662;27;20361;-51
2022/06/08 04:32:10;;;;;;;21.50;17.73;;;16.90;99.90;;;;;;5153256;27;20072;-52
2022/06/08 04:34:41;;;;;;;24.38;17.85;;;16.90;99.90;;;;;;5134805;27;20033;-51
2022/06/08 04:37:07;;;;;;;20.50;16.50;;;16.90;99.90;;;;;;5153362;27;20018;-51
2022/06/08 04:39:32;;;;;;;23.48;16.92;;;16.90;99.90;;;;;;5153387;27;20067;-51
2022/06/08 04:41:59;;;;;;;24.20;18.25;;;16.80;99.90;;;;;;5152351;27;20033;-51
2022/06/08 04:44:25;;;;;;;22.73;17.30;;;16.80;99.90;;;;;;5134762;27;20054;-52
2022/06/08 04:46:51;;;;;;;23.70;17.95;;;16.80;99.90;;;;;;5114034;27;20359;-53
2022/06/08 04:49:17;;;;;;;25.10;19.08;;;16.80;99.90;;;;;;5132330;27;20504;-52
2022/06/08 04:51:43;;;;;;;28.15;19.38;;;16.90;99.90;;;;;;5144443;27;20156;-52
2022/06/08 04:54:09;;;;;;;24.48;18.67;;;16.80;99.90;;;;;;5143834;27;20046;-52
2022/06/08 04:56:34;;;;;;;25.05;19.05;;;16.90;99.90;;;;;;5137640;27;20019;-51
2022/06/08 04:59:01;;;;;;;26.23;18.50;;;16.90;99.90;;;;;;5132470;27;20019;-52
2022/06/08 05:01:27;;;;;;;23.73;18.60;;;16.80;99.90;;;;;;5150354;27;20027;-52
2022/06/08 05:03:53;;;;;;;25.65;18.95;;;16.80;99.90;;;;;;5153123;27;20113;-52
2022/06/08 05:06:18;;;;;;;23.75;18.23;;;16.80;99.90;;;;;;5152169;27;20636;-51
2022/06/08 05:08:44;;;;;;;24.35;18.58;;;16.70;99.90;;;;;;5134464;27;20030;-51
2022/06/08 05:11:10;;;;;;;24.80;18.20;;;16.80;99.90;;;;;;5152938;27;20431;-52
2022/06/08 05:13:36;;;;;;;28.58;18.63;;;16.70;99.90;;;;;;5137355;27;20035;-52
2022/06/08 05:16:04;;;;;;;26.60;19.35;;;16.80;99.90;;;;;;5131888;27;20072;-51
2022/06/08 05:18:30;;;;;;;26.25;19.25;;;16.90;99.90;;;;;;5131854;27;20023;-52
2022/06/08 05:20:56;;;;;;;26.63;19.23;;;16.80;99.90;;;;;;5131823;27;20035;-52
2022/06/08 05:23:25;;;;;;;25.80;19.75;;;16.90;99.90;;;;;;5131975;27;20027;-52
2022/06/08 05:25:52;;;;;;;28.60;20.05;;;16.90;99.90;;;;;;5131898;27;20023;-51
2022/06/08 05:28:18;;;;;;;28.73;21.00;;;17.00;99.90;;;;;;5131806;27;20026;-52
2022/06/08 05:30:43;;;;;;;24.27;17.83;;;16.90;99.90;;;;;;5131688;27;20265;-51
2022/06/08 05:33:11;;;;;;;25.48;19.05;;;17.00;99.90;;;;;;5131413;27;20035;-52
2022/06/08 05:35:37;;;;;;;25.83;18.60;;;17.00;99.90;;;;;;5131467;27;20099;-52
2022/06/08 05:38:04;;;;;;;24.25;18.88;;;17.00;99.90;;;;;;5131731;27;20038;-52
2022/06/08 05:40:32;;;;;;;26.50;19.05;;;16.90;99.90;;;;;;5131498;27;20462;-52
2022/06/08 05:43:00;;;;;;;27.08;19.48;;;17.00;99.90;;;;;;5131627;27;20035;-52
2022/06/08 05:45:28;;;;;;;29.33;20.75;;;16.90;99.90;;;;;;5131314;27;20058;-52
2022/06/08 05:47:56;;;;;;;30.80;19.77;;;16.90;99.90;;;;;;5131721;27;20028;-51
2022/06/08 05:50:22;;;;;;;26.95;19.65;;;16.90;99.90;;;;;;5131414;27;20063;-51
2022/06/08 05:52:49;;;;;;;26.90;19.65;;;17.00;99.90;;;;;;5130667;27;20050;-52
2022/06/08 05:55:16;;;;;;;29.73;20.67;;;17.00;99.90;;;;;;5131233;27;20135;-52
2022/06/08 05:57:42;;;;;;;26.77;19.55;;;17.00;99.90;;;;;;5131199;27;20075;-51
2022/06/08 06:00:12;;;;;;;32.47;20.02;;;17.00;99.90;;;;;;5131264;27;20023;-53
2022/06/08 06:02:37;;;;;;;27.55;19.02;;;17.00;99.90;;;;;;5131004;27;20023;-52
2022/06/08 06:05:04;;;;;;;28.08;19.98;;;17.00;99.90;;;;;;5131290;27;20033;-51
2022/06/08 06:07:30;;;;;;;30.25;21.30;;;17.00;99.90;;;;;;5130989;27;20034;-52
2022/06/08 06:10:02;;;;;;;28.48;21.20;;;17.00;99.90;;;;;;5130613;27;20034;-51
2022/06/08 06:12:28;;;;;;;29.73;21.02;;;17.00;99.90;;;;;;5131094;27;20027;-51
2022/06/08 06:14:54;;;;;;;28.57;19.97;;;17.10;99.90;;;;;;5131192;27;20043;-50
2022/06/08 06:17:20;;;;;;;29.42;21.33;;;17.20;99.90;;;;;;5131051;27;20028;-50
2022/06/08 06:19:46;;;;;;;30.05;21.67;;;17.30;99.90;;;;;;5130978;27;20102;-51
2022/06/08 06:22:11;;;;;;;29.73;22.08;;;17.30;99.90;;;;;;5131015;27;20494;-51
2022/06/08 06:24:37;;;;;;;29.13;20.88;;;17.30;99.90;;;;;;5131061;27;20065;-51
2022/06/08 06:27:04;;;;;;;27.58;20.33;;;17.30;99.90;;;;;;5130894;28;20442;-52
2022/06/08 06:29:30;;;;;;;28.27;21.73;;;17.30;99.90;;;;;;5130861;28;20033;-52
2022/06/08 06:31:58;;;;;;;30.65;21.15;;;17.30;99.90;;;;;;5130794;27;20114;-52
2022/06/08 06:34:26;;;;;;;33.13;21.30;;;17.30;99.90;;;;;;5130860;28;20564;-51
2022/06/08 06:36:53;;;;;;;28.60;21.90;;;17.20;99.90;;;;;;5130741;28;20015;-52
2022/06/08 06:39:21;;;;;;;29.08;22.13;;;17.20;99.90;;;;;;5138886;27;20045;-50
2022/06/08 06:41:47;;;;;;;;;;;17.20;99.90;;;;;;5151684;27;20596;-51
2022/06/08 06:44:12;;;;;;;31.42;21.90;;;17.20;99.90;;;;;;5151390;27;20362;-52
2022/06/08 06:46:38;;;;;;;35.50;22.88;;;17.20;99.90;;;;;;5132702;27;20054;-52
2022/06/08 06:49:04;;;;;;;33.20;23.55;;;17.20;99.90;;;;;;5132585;27;20033;-51
2022/06/08 06:51:29;;;;;;;27.52;19.55;;;17.20;99.90;;;;;;5151438;27;20099;-52
2022/06/08 06:53:55;;;;;;;26.50;19.25;;;17.20;99.90;;;;;;5150954;27;20243;-51
2022/06/08 06:56:21;;;;;;;29.73;20.73;;;17.20;99.90;;;;;;5151477;27;20041;-51
2022/06/08 06:58:49;;;;;;;27.42;19.80;;;17.20;99.90;;;;;;5151046;27;20031;-51
2022/06/08 07:01:16;;;;;;;27.75;18.88;;;17.30;99.90;;;;;;5151153;27;20027;-51
2022/06/08 07:03:44;;;;;;;25.05;18.08;;;17.20;99.90;;;;;;5151118;27;20034;-51
2022/06/08 07:06:10;;;;;;;25.75;17.40;;;17.30;99.90;;;;;;5153682;27;20448;-51
2022/06/08 07:08:36;;;;;;;25.15;17.55;;;17.30;99.90;;;;;;5154909;27;20470;-52
2022/06/08 07:13:49;;;;;;;24.08;17.77;;;17.40;99.90;;;;;;5154924;27;20091;-52
2022/06/08 07:16:15;;;;;;;23.25;17.20;;;17.40;99.90;;;;;;5154892;27;20117;-52
2022/06/08 07:18:41;;;;;;;26.23;18.63;;;17.50;99.90;;;;;;5155204;27;20038;-51
2022/06/08 07:21:07;;;;;;;23.20;17.30;;;17.40;99.90;;;;;;5154692;27;20027;-52
2022/06/08 07:23:32;;;;;;;24.02;18.88;;;17.40;99.90;;;;;;5154856;27;20026;-51
2022/06/08 07:25:58;;;;;;;25.48;17.73;;;17.50;99.90;;;;;;5154836;27;20087;-51
2022/06/08 07:28:24;;;;;;;24.83;18.15;;;17.50;99.90;;;;;;5154683;27;20038;-52
2022/06/08 07:30:50;;;;;;;24.30;17.73;;;17.60;99.90;;;;;;5154750;27;20030;-52
2022/06/08 07:33:15;;;;;;;24.17;17.45;;;17.60;99.90;;;;;;5154360;27;20543;-51
2022/06/08 07:35:41;;;;;;;23.70;17.67;;;17.60;99.90;;;;;;5154447;27;20019;-52
2022/06/08 07:38:08;;;;;;;22.80;16.55;;;17.50;99.90;;;;;;5154384;27;20026;-52
2022/06/08 07:40:34;;;;;;;24.50;17.55;;;17.50;99.90;;;;;;5154424;27;20070;-51
2022/06/08 07:42:59;;;;;;;26.20;17.95;;;17.60;99.90;;;;;;5154463;27;20022;-51
2022/06/08 07:45:25;;;;;;;25.65;18.27;;;17.60;99.90;;;;;;5154093;27;20037;-52
2022/06/08 07:50:35;;;;;;;24.35;18.20;;;17.60;99.90;;;;;;5154140;27;20033;-51
2022/06/08 07:53:01;;;;;;;25.77;18.40;;;17.60;99.90;;;;;;5153901;27;20050;-52
2022/06/08 07:55:26;;;;;;;25.67;18.90;;;17.60;99.90;;;;;;5154223;27;20050;-52
2022/06/08 07:57:53;;;;;;;25.42;18.55;;;17.60;99.90;;;;;;5154077;27;20031;-51
2022/06/08 08:00:20;;;;;;;25.58;17.65;;;17.60;99.90;;;;;;5154001;27;20034;-52
2022/06/08 08:02:46;;;;;;;23.67;17.33;;;17.60;99.90;;;;;;5154081;27;20031;-51
2022/06/08 08:05:13;;;;;;;25.05;17.90;;;17.60;99.90;;;;;;5153995;27;20384;-51
2022/06/08 08:07:41;;;;;;;27.40;19.90;;;17.60;99.90;;;;;;5153817;27;20121;-52
2022/06/08 08:10:11;;;;;;;24.35;17.73;;;17.60;99.90;;;;;;5153836;27;20058;-52
2022/06/08 08:12:37;;;;;;;25.88;17.73;;;17.60;99.90;;;;;;5153795;27;20069;-51
2022/06/08 08:15:04;;;;;;;24.05;17.85;;;17.60;99.90;;;;;;5153415;27;20462;-51
2022/06/08 08:17:29;;;;;;;24.65;17.75;;;17.60;99.90;;;;;;5153610;27;20058;-52
2022/06/08 08:19:55;;;;;;;25.40;17.88;;;17.60;99.90;;;;;;5153819;27;20054;-51
2022/06/08 08:22:21;;;;;;;23.05;16.92;;;17.60;99.90;;;;;;5153640;27;20037;-52
2022/06/08 08:24:47;;;;;;;22.05;16.77;;;17.60;99.90;;;;;;5153666;27;20437;-51
2022/06/08 08:27:15;;;;;;;22.30;17.13;;;17.60;99.90;;;;;;5153699;27;20422;-51
2022/06/08 08:29:41;;;;;;;21.77;16.08;;;17.50;99.90;;;;;;5153780;27;20459;-52
2022/06/08 08:32:09;;;;;;;23.23;17.88;;;17.50;99.90;;;;;;5153758;27;20049;-51
2022/06/08 08:34:35;;;;;;;24.88;17.52;;;17.40;99.90;;;;;;5153474;27;20027;-52
2022/06/08 08:37:01;;;;;;;21.23;16.92;;;17.50;99.90;;;;;;5153210;27;20018;-52
2022/06/08 08:39:27;;;;;;;22.80;17.52;;;17.50;99.90;;;;;;5143969;27;20489;-51
2022/06/08 08:45:04;;;;;;;27.42;17.10;;;17.60;99.90;;;;;;5132485;27;20030;-52
2022/06/08 08:47:35;;;;;;;22.17;17.50;;;17.50;99.90;;;;;;5103146;27;20084;-51
2022/06/08 08:50:46;;;;;;;24.08;17.55;;;17.50;99.90;;;;;;5132627;27;20065;-51
2022/06/08 08:53:30;;;;;;;26.40;18.65;;;17.60;99.90;;;;;;5040847;27;20124;-52
2022/06/08 08:56:22;;;;;;;29.58;19.52;;;17.60;99.90;;;;;;5131960;27;20023;-52
2022/06/08 08:58:49;;;;;;;31.15;19.45;;;17.70;99.90;;;;;;5131969;27;20428;-52
2022/06/08 09:01:30;;;;;;;25.83;19.30;;;17.70;99.90;;;;;;5132379;27;20023;-52
2022/06/08 09:04:04;;;;;;;30.05;20.58;;;17.60;99.90;;;;;;5132283;27;20023;-52
2022/06/08 09:06:33;;;;;;;28.95;20.27;;;17.60;99.90;;;;;;5132178;27;20019;-51
2022/06/08 09:09:02;;;;;;;29.58;20.25;;;17.70;99.90;;;;;;5131941;27;20114;-52
2022/06/08 09:11:35;;;;;;;24.85;18.70;;;17.70;99.90;;;;;;5132073;27;20508;-53
2022/06/08 09:14:09;;;;;;;27.52;20.23;;;17.70;99.90;;;;;;5131985;27;20096;-52
2022/06/08 09:16:41;;;;;;;31.73;21.70;;;17.80;99.90;;;;;;5132069;27;20076;-52
2022/06/08 09:19:22;;;;;;;30.85;20.42;;;17.80;99.90;;;;;;5131959;27;20099;-52
2022/06/08 09:21:54;;;;;;;29.42;20.27;;;17.80;99.90;;;;;;5131630;27;20050;-51
2022/06/08 09:24:47;;;;;;;27.60;20.77;;;17.80;99.90;;;;;;5131745;27;20065;-52
2022/06/08 09:27:25;;;;;;;27.17;21.00;;;17.80;99.90;;;;;;5121194;27;20043;-51
2022/06/08 09:29:55;;;;;;;29.90;21.02;;;17.90;99.90;;;;;;5131497;27;20130;-51
2022/06/08 09:32:32;;;;;;;29.05;21.20;;;17.90;99.90;;;;;;5131502;27;20394;-52
2022/06/08 09:35:03;;;;;;;21.85;17.08;;;18.00;99.90;;;;;;5131575;27;20080;-52
2022/06/08 09:37:30;;;;;;;20.23;16.92;;;17.90;99.90;;;;;;5113032;27;20054;-51
2022/06/08 09:39:59;;;;;;;25.38;16.20;;;17.90;99.90;;;;;;5143457;27;20027;-51
2022/06/08 09:42:34;;;;;;;20.35;15.35;;;18.10;99.90;;;;;;5152066;27;20034;-51
2022/06/08 09:45:25;;;;;;;24.27;16.60;;;18.10;99.90;;;;;;5152057;27;20374;-52
2022/06/08 09:51:25;;;;;;;19.98;15.15;;;18.20;99.90;;;;;;5119629;27;20110;-51
2022/06/08 09:54:11;;;;;;;19.48;14.93;;;18.30;99.90;;;;;;5151864;27;20074;-52
2022/06/08 09:56:54;;;;;;;19.52;15.82;;;18.40;99.90;;;;;;5152214;27;20030;-51
2022/06/08 09:59:25;;;;;;;19.20;15.25;;;18.30;99.90;;;;;;5152115;27;20166;-51
2022/06/08 10:02:12;;;;;;;24.63;16.77;;;18.40;99.90;;;;;;5151984;27;20373;-51
2022/06/08 10:04:46;;;;;;;23.48;17.17;;;18.40;99.90;;;;;;5152026;27;20026;-52
2022/06/08 10:07:17;;;;;;;21.30;16.52;;;18.40;99.90;;;;;;5151676;27;20023;-52
2022/06/08 10:10:09;;;;;;;23.15;16.90;;;18.40;99.90;;;;;;5151489;27;20018;-52
2022/06/08 10:12:48;;;;;;;23.75;17.20;;;18.30;99.90;;;;;;5151835;27;20034;-51
2022/06/08 10:15:24;;;;;;;29.25;20.33;;;18.40;99.90;;;;;;5151548;27;20023;-52
2022/06/08 10:18:10;;;;;;;24.65;19.05;;;18.50;99.90;;;;;;5151790;27;20053;-52
2022/06/08 10:20:39;;;;;;;24.58;19.77;;;18.50;99.90;;;;;;5151684;27;20418;-52
2022/06/08 10:23:24;;;;;;;26.67;19.77;;;18.50;99.90;;;;;;5151590;27;20111;-52
2022/06/08 10:26:01;;;;;;;23.50;18.05;;;18.60;99.90;;;;;;5151726;27;20022;-53
2022/06/08 10:28:46;;;;;;;24.02;18.48;;;18.60;99.90;;;;;;5151166;27;20062;-52
2022/06/08 10:31:42;;;;;;;19.33;15.23;;;18.50;99.90;;;;;;5149907;27;20027;-51
2022/06/08 10:34:16;;;;;;;21.35;16.40;;;18.50;99.90;;;;;;5150402;27;20068;-52
2022/06/08 10:36:44;;;;;;;20.52;14.88;;;18.50;99.90;;;;;;5150983;27;20022;-52
2022/06/08 10:39:13;;;;;;;22.15;16.05;;;18.50;99.90;;;;;;5151043;27;20026;-51
2022/06/08 10:44:48;;;;;;;23.70;16.48;;;18.80;99.90;;;;;;5155224;27;20034;-52
2022/06/08 10:47:13;;;;;;;22.75;17.85;;;18.80;99.90;;;;;;5154014;27;20088;-51
2022/06/08 10:49:39;;;;;;;24.10;16.75;;;19.10;99.90;;;;;;5154572;27;20023;-51
2022/06/08 10:52:51;;;;;;;25.48;17.83;;;19.20;99.90;;;;;;5135790;27;20115;-52
2022/06/08 10:55:17;;;;;;;25.33;18.80;;;19.30;99.90;;;;;;5129790;27;20121;-51
2022/06/08 10:57:47;;;;;;;22.98;17.75;;;19.40;99.90;;;;;;5154738;27;20545;-51
2022/06/08 11:00:19;;;;;;;24.13;19.20;;;19.40;99.90;;;;;;5155136;27;20626;-53
2022/06/08 11:02:55;;;;;;;21.77;17.23;;;19.40;99.90;;;;;;5155228;27;20022;-52
2022/06/08 11:05:35;;;;;;;21.52;18.17;;;19.30;99.90;;;;;;5136670;27;20019;-52
2022/06/08 11:08:01;;;;;;;24.23;19.00;;;19.20;99.90;;;;;;5154788;27;20087;-52
2022/06/08 11:10:54;;;;;;;26.90;19.25;;;19.20;99.90;;;;;;5153936;27;20019;-52
2022/06/08 11:13:29;;;;;;;29.13;22.67;;;19.20;99.90;;;;;;5154855;27;20483;-52
2022/06/08 11:16:10;;;;;;;28.00;20.63;;;19.30;99.90;;;;;;5154931;27;20102;-53
2022/06/08 11:18:55;;;;;;;26.02;20.95;;;19.30;99.90;;;;;;5155206;27;20023;-51
2022/06/08 11:21:26;;;;;;;22.00;17.90;;;19.40;99.90;;;;;;5155136;27;20359;-51
2022/06/08 11:24:30;;;;;;;22.15;17.13;;;19.30;99.90;;;;;;5154822;27;20105;-52
2022/06/08 11:27:11;;;;;;;21.85;15.82;;;19.30;99.90;;;;;;5050237;28;20431;-51
2022/06/08 11:29:48;;;;;;;24.20;17.15;;;19.30;99.90;;;;;;5144050;27;20373;-52
2022/06/08 11:32:27;;;;;;;20.52;16.40;;;19.30;99.90;;;;;;5154952;27;20026;-52
2022/06/08 11:35:15;;;;;;;20.17;16.20;;;19.30;99.90;;;;;;5144704;27;20019;-52
2022/06/08 11:37:57;;;;;;;22.85;18.10;;;19.30;99.90;;;;;;5144350;27;20038;-52
2022/06/08 11:40:32;;;;;;;20.45;16.67;;;19.30;99.90;;;;;;5155868;27;20021;-53
2022/06/08 11:43:07;;;;;;;22.73;17.42;;;19.20;99.90;;;;;;5126378;27;20359;-52
2022/06/08 11:45:40;;;;;;;21.40;18.10;;;19.40;99.90;;;;;;5141432;27;20019;-50
2022/06/08 11:48:16;;;;;;;21.63;18.65;;;19.40;99.90;;;;;;5142818;27;20030;-50
2022/06/08 11:50:48;;;;;;;20.70;17.98;;;19.50;99.90;;;;;;5142059;27;20026;-51
2022/06/08 11:53:26;;;;;;;20.27;16.75;;;19.50;99.90;;;;;;5142727;27;20075;-51
2022/06/08 11:56:12;;;;;;;30.55;20.38;;;19.50;99.90;;;;;;5143538;27;20496;-51
2022/06/08 11:58:47;;;;;;;24.88;21.42;;;19.80;99.90;;;;;;5144694;27;20110;-52
2022/06/08 12:01:26;;;;;;;28.98;22.45;;;19.80;99.90;;;;;;5155142;27;20084;-51
2022/06/08 12:04:25;;;;;;;29.75;23.80;;;19.80;99.90;;;;;;5143729;27;20026;-51
2022/06/08 12:06:53;;;;;;;24.35;20.17;;;19.70;99.90;;;;;;5143050;27;20040;-50
2022/06/08 12:09:23;;;;;;;23.55;18.67;;;19.70;99.90;;;;;;5144089;27;20019;-51
2022/06/08 12:11:52;;;;;;;23.00;18.55;;;19.70;99.90;;;;;;5153504;27;20023;-52
2022/06/08 12:14:28;;;;;;;24.33;19.27;;;19.70;99.90;;;;;;5149675;27;20039;-51
2022/06/08 12:17:05;;;;;;;24.20;19.88;;;19.80;99.90;;;;;;5152122;27;20479;-50
2022/06/08 12:19:40;;;;;;;24.05;19.17;;;19.70;99.90;;;;;;5143267;27;20038;-50
2022/06/08 12:22:26;;;;;;;22.42;18.30;;;19.80;99.90;;;;;;5142465;27;20126;-51
2022/06/08 12:25:10;;;;;;;23.90;20.05;;;19.80;99.90;;;;;;5142623;27;20787;-51
2022/06/08 12:27:42;;;;;;;29.98;20.52;;;19.90;99.90;;;;;;5143812;27;20190;-50
2022/06/08 12:30:20;;;;;;;23.75;18.42;;;20.00;99.90;;;;;;5142542;27;20019;-50
2022/06/08 12:33:01;;;;;;;23.05;19.40;;;20.00;99.90;;;;;;5142134;27;20015;-53
2022/06/08 12:35:52;;;;;;;24.40;18.95;;;20.10;99.90;;;;;;5142127;27;20023;-51
2022/06/08 12:38:24;;;;;;;21.98;19.50;;;20.10;99.90;;;;;;5143920;27;20556;-51
2022/06/08 12:41:16;;;;;;;20.70;18.17;;;20.10;99.90;;;;;;5153049;27;20105;-50
2022/06/08 12:43:48;;;;;;;21.83;18.38;;;20.00;99.90;;;;;;5148474;27;20048;-50
2022/06/08 12:46:13;;;;;;;21.33;17.38;;;20.00;99.90;;;;;;5125664;27;20031;-51
2022/06/08 12:48:39;;;;;;;23.70;18.60;;;20.00;99.90;;;;;;5141204;27;20168;-52
2022/06/08 12:51:32;;;;;;;22.02;17.83;;;20.00;99.90;;;;;;5132329;27;20034;-50
2022/06/08 12:54:05;;;;;;;19.98;17.75;;;20.00;99.90;;;;;;5132172;27;20095;-51
2022/06/08 12:56:31;;;;;;;21.45;16.48;;;19.90;99.90;;;;;;5132144;27;20043;-52
2022/06/08 12:58:57;;;;;;;20.70;17.10;;;20.00;99.90;;;;;;5132499;27;20023;-52
2022/06/08 13:01:29;;;;;;;21.00;17.00;;;20.00;99.90;;;;;;5132009;27;20034;-52
2022/06/08 13:03:56;;;;;;;22.33;17.63;;;20.10;99.90;;;;;;5131231;27;20026;-51
2022/06/08 13:06:24;;;;;;;19.27;16.02;;;20.40;99.90;;;;;;5131806;27;20030;-52
2022/06/08 13:08:50;;;;;;;17.35;15.50;;;20.60;99.90;;;;;;5131947;27;20043;-52
2022/06/08 13:11:23;;;;;;;17.27;14.17;;;20.80;99.90;;;;;;5131917;27;20100;-51
2022/06/08 13:13:51;;;;;;;17.55;14.45;;;20.90;99.90;;;;;;5131821;27;20338;-51
2022/06/08 13:16:21;;;;;;;14.25;12.68;;;21.00;99.90;;;;;;5131953;27;20038;-51
2022/06/08 13:18:48;;;;;;;17.50;12.55;;;21.00;99.90;;;;;;5131930;27;20031;-51
2022/06/08 13:21:14;;;;;;;15.43;12.93;;;21.10;99.90;;;;;;5131807;27;20681;-51
2022/06/08 13:23:40;;;;;;;15.32;12.00;;;21.10;99.90;;;;;;5131765;27;20041;-52